Porter County Municipal Airport
KVPZ : now visible

Airfield :











YOU CAN JOIN US ON...

 
LOGIN :

Register | Disclaimer

   EN    FR    IT 

 









Legend :    VFR   Marginal VFR   IFR   Intensive IFR   Very Intensive IFR
Visi :
Ceiling :
>= 8 km
>= 3000ft
5 to 8 km
1000 to 3000 ft
1500m to 5 km
500 to 1000 ft
800 to 1500m
200 to 500 ft
< 800m
< 200 ft
Symbols :   Thunderstorms  Fog  Heavy snow  Heavy precipitations  Wind > 20 kt






- Airport Elevation : 770 ft


KVPZ - Porter County Municipal

CURRENT METAR :
  • 251322Z AUTO 11005KT 3SM BR OVC002 07/06 A2984 RMK AO2 T00670056

EXPIRED METARs :
  • 251256Z AUTO 15006KT 2 1/2SM BR BKN003 OVC015 07/06 A2985 RMK AO2 RAE33 SLP113 P0001 T00670056
  • 251156Z AUTO 15006KT 2SM -RA BR OVC003 07/06 A2986 RMK AO2 RAB47 SLP116 P0001 60002 70037 T00670056 10067 20061 55013
  • 251123Z AUTO 15005KT 3SM BR OVC002 07/06 A2986 RMK AO2 T00670056
  • 251056Z AUTO 16005KT 2 1/2SM BR OVC003 07/06 A2986 RMK AO2 SLP116 T00670056
  • 251035Z AUTO 16005KT 2 1/2SM BR OVC003 07/05 A2987 RMK AO2 T00670050

TAF N/A
KZAU FIR / North America



MET'MAP, your aeronautical weather chart ! - Copyright ORBIFLY December 2007 - Disclaimer

ORBIFLY MET'MAP TEAM :

Programming & Development : Alexandra Zaïnal
Concept & original design : Baudouin d'Aumeries
Assistance for programming : Marc-Olivier Méhu
Technical & hardware support : Manuel Goepfert

Contact : metmap@orbifly.com




SOURCES & CREDITS :

   NOAA       Earth
Advisory